Time;durP1;ratioP1;P1;durP2;ratioP2;P2;SDS_P1;SDS_P2;PMS_P1;PMS_P2;Temp;Humidity;BMP_temperature;BMP_pressure;BME280_temperature;BME280_humidity;BME280_pressure;Samples;Min_cycle;Max_cycle;Signal;HPM_P1;HPM_P2
2023/01/26 00:02:13;;;;;;;71.00;53.30;;;;;;;1.82;77.06;101239.63;109293;1269;22068;-77
2023/01/26 00:04:43;;;;;;;73.80;55.40;;;;;;;1.80;77.02;101237.55;109484;1268;22008;-77
2023/01/26 00:07:17;;;;;;;76.40;56.30;;;;;;;1.80;77.20;101235.82;109505;1269;21997;-76
2023/01/26 00:09:53;;;;;;;78.00;57.50;;;;;;;1.79;77.15;101237.52;109461;1269;21977;-78
2023/01/26 00:12:33;;;;;;;77.60;55.60;;;;;;;1.79;77.25;101231.87;110240;1263;21992;-77
2023/01/26 00:15:10;;;;;;;76.20;54.30;;;;;;;1.80;77.21;101226.55;110220;1263;22002;-78
2023/01/26 00:17:50;;;;;;;78.40;57.20;;;;;;;1.79;77.20;101223.11;109943;1263;22040;-76
2023/01/26 00:24:38;;;;;;;78.60;51.80;;;;;;;1.72;77.30;101222.67;110548;1263;22991;-77
2023/01/26 00:27:11;;;;;;;71.80;55.30;;;;;;;1.71;77.32;101220.27;110152;1263;22090;-78
2023/01/26 00:29:50;;;;;;;74.80;53.90;;;;;;;1.73;77.37;101216.69;110616;1263;22044;-79
2023/01/26 00:32:22;;;;;;;75.70;56.10;;;;;;;1.74;77.31;101213.95;110176;1258;22748;-78
2023/01/26 00:34:53;;;;;;;76.90;56.30;;;;;;;1.75;77.34;101212.25;110181;1263;21979;-78
2023/01/26 00:37:30;;;;;;;77.10;54.90;;;;;;;1.73;77.41;101208.45;110468;1263;21994;-79
2023/01/26 00:40:07;;;;;;;78.00;56.30;;;;;;;1.75;77.39;101209.33;109579;1268;22069;-79
2023/01/26 00:42:41;;;;;;;80.20;55.60;;;;;;;1.74;77.42;101206.92;109692;1257;23040;-78
2023/01/26 00:45:33;;;;;;;72.60;54.10;;;;;;;1.74;77.37;101205.89;109649;1269;22450;-77
2023/01/26 00:48:07;;;;;;;79.50;54.60;;;;;;;1.70;77.34;101200.86;109800;1268;23065;-77
2023/01/26 00:50:43;;;;;;;80.70;56.20;;;;;;;1.70;77.42;101202.92;109540;1268;22395;-77
2023/01/26 00:53:19;;;;;;;79.80;54.70;;;;;;;1.69;77.51;101199.46;109292;1272;22446;-76
2023/01/26 00:56:04;;;;;;;79.20;53.90;;;;;;;1.68;77.45;101201.18;109284;1272;21958;-76
2023/01/26 00:58:39;;;;;;;73.80;53.80;;;;;;;1.67;77.48;101200.83;109049;1270;22079;-77
2023/01/26 01:01:18;;;;;;;78.20;55.00;;;;;;;1.70;77.59;101196.41;109201;1274;23127;-77
2023/01/26 01:04:06;;;;;;;76.30;56.60;;;;;;;1.78;77.74;101193.91;109124;1273;22014;-77
2023/01/26 01:06:38;;;;;;;82.30;54.50;;;;;;;1.82;77.61;101193.63;109121;1274;21991;-76
2023/01/26 01:09:17;;;;;;;80.00;57.20;;;;;;;1.80;77.49;101193.60;109108;1274;23125;-77
2023/01/26 01:12:00;;;;;;;76.50;56.50;;;;;;;1.74;77.48;101189.93;109806;1263;24305;-76
2023/01/26 01:14:38;;;;;;;76.80;56.60;;;;;;;1.70;77.42;101185.07;110140;1263;23659;-76
2023/01/26 01:17:14;;;;;;;83.60;59.00;;;;;;;1.65;77.46;101184.67;110697;1256;22038;-77
2023/01/26 01:19:52;;;;;;;83.20;57.30;;;;;;;1.63;77.60;101185.49;110755;1256;21955;-77
2023/01/26 01:22:53;;;;;;;75.50;54.90;;;;;;;1.60;77.58;101184.43;110939;1256;21932;-77
2023/01/26 01:25:45;;;;;;;85.20;62.10;;;;;;;1.57;77.69;101183.03;110486;1262;22031;-77
2023/01/26 01:28:19;;;;;;;75.90;57.20;;;;;;;1.56;77.68;101179.59;110608;1263;21972;-77
2023/01/26 01:30:58;;;;;;;82.10;58.00;;;;;;;1.58;77.78;101177.54;110561;1263;22218;-77
2023/01/26 01:33:34;;;;;;;80.50;57.30;;;;;;;1.58;77.78;101177.20;110050;1266;22519;-78
2023/01/26 01:36:15;;;;;;;78.30;56.50;;;;;;;1.57;77.75;101175.98;110138;1262;21981;-78
2023/01/26 01:38:53;;;;;;;77.80;55.40;;;;;;;1.58;77.84;101173.94;110158;1266;22061;-79
2023/01/26 01:41:43;;;;;;;72.50;53.20;;;;;;;1.58;77.80;101171.36;109770;1267;23588;-77
2023/01/26 01:44:37;;;;;;;79.60;55.50;;;;;;;1.58;77.84;101166.56;110326;1263;22035;-77
2023/01/26 01:47:24;;;;;;;79.20;56.00;;;;;;;1.62;77.97;101164.20;110097;1263;21978;-77
2023/01/26 01:50:03;;;;;;;86.10;57.40;;;;;;;1.61;77.87;101160.61;110062;1265;21977;-77
2023/01/26 01:52:51;;;;;;;;;;;;;;;;;;;;;
2023/01/26 01:55:24;;;;;;;73.10;53.90;;;;;;;1.63;77.99;101152.38;110406;1263;23028;-77
2023/01/26 01:58:10;;;;;;;73.30;54.80;;;;;;;1.61;77.85;101147.91;110436;1263;23027;-77
2023/01/26 02:00:49;;;;;;;77.60;57.90;;;;;;;1.61;77.90;101148.25;110447;1263;22011;-76
2023/01/26 02:03:32;;;;;;;74.00;52.20;;;;;;;1.61;77.91;101148.77;110348;1263;22237;-78
2023/01/26 02:06:45;;;;;;;76.50;54.60;;;;;;;1.63;78.00;101146.73;109955;1267;23816;-78
2023/01/26 02:12:10;;;;;;;72.10;52.10;;;;;;;1.64;78.09;101146.39;109250;1272;24589;-76
2023/01/26 02:14:43;;;;;;;70.90;51.60;;;;;;;1.67;78.18;101145.06;109505;1267;22749;-77
2023/01/26 02:17:19;;;;;;;71.10;50.10;;;;;;;1.71;78.03;101139.44;109776;1267;23119;-76
2023/01/26 02:20:12;;;;;;;73.20;52.30;;;;;;;1.69;77.91;101135.98;110388;1267;22001;-76
2023/01/26 02:22:58;;;;;;;72.70;54.50;;;;;;;1.66;77.92;101129.09;110005;1267;23033;-77
2023/01/26 02:25:40;;;;;;;75.10;52.40;;;;;;;1.66;77.99;101126.52;109662;1269;24330;-79
2023/01/26 02:28:11;;;;;;;72.60;53.20;;;;;;;1.69;78.04;101121.05;110479;1262;22050;-77
2023/01/26 02:30:45;;;;;;;73.30;52.30;;;;;;;1.71;78.00;101117.13;110289;1262;22833;-77
2023/01/26 02:33:22;;;;;;;72.50;54.00;;;;;;;1.71;77.94;101113.18;110224;1262;23732;-77
2023/01/26 02:36:01;;;;;;;78.10;56.30;;;;;;;1.73;78.00;101107.02;110665;1262;23765;-78
2023/01/26 02:39:18;;;;;;;73.10;54.50;;;;;;;1.74;78.00;101101.20;110071;1265;23055;-78
2023/01/26 02:44:52;;;;;;;78.00;55.50;;;;;;;1.67;78.04;101096.33;110158;1266;21988;-78
2023/01/26 02:47:43;;;;;;;77.50;54.00;;;;;;;1.64;78.07;101092.19;110240;1266;24329;-77
2023/01/26 02:50:18;;;;;;;72.90;50.00;;;;;;;1.64;78.01;101087.90;109517;1271;22311;-78
2023/01/26 02:52:50;;;;;;;76.10;53.40;;;;;;;1.65;78.06;101085.66;109460;1271;21994;-77
2023/01/26 02:55:29;;;;;;;75.60;52.10;;;;;;;1.66;78.10;101084.31;109640;1271;23883;-78
2023/01/26 02:58:03;;;;;;;72.70;51.60;;;;;;;1.65;78.09;101081.21;109085;1275;23098;-77
2023/01/26 03:00:41;;;;;;;70.40;52.30;;;;;;;1.65;78.06;101074.00;109142;1273;22450;-78
2023/01/26 03:03:41;;;;;;;69.50;50.60;;;;;;;1.63;78.01;101073.47;109086;1271;23738;-76
2023/01/26 03:06:28;;;;;;;71.50;52.20;;;;;;;1.59;78.03;101075.83;109125;1275;23074;-77
2023/01/26 03:09:00;;;;;;;71.00;50.60;;;;;;;1.56;78.02;101080.09;109432;1267;23115;-78
2023/01/26 03:11:42;;;;;;;74.20;53.80;;;;;;;1.58;78.08;101075.98;109127;1272;22942;-77
2023/01/26 03:14:17;;;;;;;73.70;53.80;;;;;;;1.60;78.16;101069.33;108962;1276;24587;-77
2023/01/26 03:16:51;;;;;;;76.60;53.80;;;;;;;1.61;78.18;101068.46;109472;1270;21998;-77
2023/01/26 03:27:53;;;;;;;77.10;52.90;;;;;;;1.55;78.25;101056.05;109679;1267;21984;-77
2023/01/26 03:30:32;;;;;;;67.10;49.00;;;;;;;1.53;78.21;101054.67;109640;1267;23628;-77
2023/01/26 03:33:05;;;;;;;78.10;55.60;;;;;;;1.51;78.24;101051.73;109428;1265;22139;-77
2023/01/26 03:35:51;;;;;;;76.90;56.60;;;;;;;1.48;78.14;101045.86;109377;1270;22152;-78
2023/01/26 03:38:31;;;;;;;73.60;54.40;;;;;;;1.48;78.36;101043.64;109466;1266;22743;-77
2023/01/26 03:56:22;;;;;;;74.50;54.20;;;;;;;1.51;78.48;101036.29;110134;1263;22046;-76
2023/01/26 03:59:24;;;;;;;75.40;53.20;;;;;;;1.52;78.57;101030.80;110660;1258;22968;-79
2023/01/26 04:11:05;;;;;;;72.50;53.50;;;;;;;1.77;78.48;101016.11;110793;1259;21972;-76
2023/01/26 04:22:43;;;;;;;84.10;61.80;;;;;;;1.62;78.13;101016.15;110461;1262;23714;-77
2023/01/26 04:25:20;;;;;;;81.30;57.00;;;;;;;1.60;78.12;101012.52;110406;1262;21976;-76
2023/01/26 04:27:53;;;;;;;77.20;57.50;;;;;;;1.63;78.23;101012.90;109830;1266;22444;-78
2023/01/26 04:30:40;;;;;;;72.50;55.40;;;;;;;1.66;78.17;101014.81;110106;1267;21977;-78
2023/01/26 04:33:12;;;;;;;78.90;58.40;;;;;;;1.66;78.17;101012.58;110144;1266;21979;-78
2023/01/26 04:35:57;;;;;;;74.70;55.40;;;;;;;1.65;78.14;101007.43;110041;1266;21993;-77
2023/01/26 04:38:35;;;;;;;76.10;56.80;;;;;;;1.63;78.10;101010.16;110541;1263;21986;-77
2023/01/26 04:41:14;;;;;;;75.70;56.50;;;;;;;1.62;78.11;101009.98;110452;1263;22150;-78
2023/01/26 04:43:56;;;;;;;75.50;56.80;;;;;;;1.64;78.20;101010.00;110602;1263;22340;-77
2023/01/26 04:46:36;;;;;;;79.90;58.00;;;;;;;1.64;78.06;101005.35;110557;1257;21972;-77
2023/01/26 04:49:17;;;;;;;77.90;57.40;;;;;;;1.65;78.24;101000.05;110827;1260;22235;-78
2023/01/26 04:51:55;;;;;;;73.90;55.60;;;;;;;1.67;78.18;101000.41;110188;1266;23706;-79
2023/01/26 04:54:42;;;;;;;81.00;60.10;;;;;;;1.71;78.18;100998.39;109911;1266;21973;-77
2023/01/26 04:57:19;;;;;;;78.60;58.20;;;;;;;1.72;78.11;100995.30;109893;1262;21969;-79
2023/01/26 05:00:01;;;;;;;80.60;59.90;;;;;;;1.72;78.02;100995.66;109458;1273;23736;-78
2023/01/26 05:02:42;;;;;;;78.80;60.60;;;;;;;1.71;78.05;100997.19;109379;1272;24202;-80
2023/01/26 05:05:17;;;;;;;83.20;59.90;;;;;;;1.69;78.03;100989.62;109336;1272;22505;-78
2023/01/26 05:07:52;;;;;;;81.50;64.70;;;;;;;1.68;77.98;100990.13;109407;1268;23647;-78
2023/01/26 05:10:25;;;;;;;78.80;59.30;;;;;;;1.73;78.04;100994.80;109723;1268;23751;-78
2023/01/26 05:13:24;;;;;;;77.20;58.90;;;;;;;1.71;77.89;100993.06;109086;1273;21982;-75
2023/01/26 05:16:20;;;;;;;84.70;62.70;;;;;;;1.70;78.05;100988.27;109168;1271;21979;-76
2023/01/26 05:19:50;;;;;;;82.20;60.60;;;;;;;1.71;78.11;100985.52;110173;1266;21940;-79
2023/01/26 05:22:54;;;;;;;82.90;62.70;;;;;;;1.72;78.11;100985.52;110193;1267;21992;-78
2023/01/26 05:26:04;;;;;;;81.60;59.10;;;;;;;1.71;78.06;100981.74;109993;1267;23709;-76
2023/01/26 05:29:06;;;;;;;101.00;72.10;;;;;;;1.69;77.98;100980.17;109750;1267;21993;-78
2023/01/26 05:32:12;;;;;;;102.50;72.10;;;;;;;1.67;77.97;100978.96;110061;1264;21991;-79
2023/01/26 05:35:02;;;;;;;79.60;60.10;;;;;;;1.66;78.03;100979.13;110781;1256;21970;-79
2023/01/26 05:37:48;;;;;;;101.90;71.70;;;;;;;1.66;78.09;100975.18;111026;1256;23730;-78
2023/01/26 05:40:25;;;;;;;94.40;69.80;;;;;;;1.69;78.07;100967.81;110778;1256;23294;-77
2023/01/26 05:43:25;;;;;;;90.10;64.40;;;;;;;1.75;78.20;100971.30;110720;1256;22178;-79
2023/01/26 05:46:51;;;;;;;86.20;60.80;;;;;;;1.77;78.10;100966.69;110910;1257;23593;-79
2023/01/26 05:49:40;;;;;;;93.60;64.60;;;;;;;1.76;77.88;100966.00;111021;1258;22048;-79
2023/01/26 05:52:55;;;;;;;;;;;;;;;;;;;;;
2023/01/26 05:55:37;;;;;;;92.40;65.10;;;;;;;1.85;78.08;100962.98;110828;1254;23628;-79
2023/01/26 05:58:39;;;;;;;86.80;61.80;;;;;;;1.87;77.92;100960.60;110775;1258;21971;-79
2023/01/26 06:01:18;;;;;;;101.20;70.40;;;;;;;1.84;77.69;100960.40;110770;1258;23583;-80
2023/01/26 06:04:09;;;;;;;98.30;70.50;;;;;;;1.81;77.72;100964.14;110802;1258;22483;-78
2023/01/26 06:07:12;;;;;;;115.90;85.90;;;;;;;1.77;77.68;100962.05;111044;1258;21982;-79
2023/01/26 06:10:02;;;;;;;96.30;68.70;;;;;;;1.74;77.76;100961.35;111184;1257;21963;-79
2023/01/26 06:13:19;;;;;;;98.00;67.40;;;;;;;1.69;77.66;100969.02;110267;1263;21971;-79
2023/01/26 06:16:16;;;;;;;87.20;65.20;;;;;;;1.66;77.67;100971.41;109972;1268;21994;-79
2023/01/26 06:19:02;;;;;;;94.40;68.50;;;;;;;1.66;77.72;100969.86;109615;1268;22093;-79
2023/01/26 06:21:53;;;;;;;84.70;62.90;;;;;;;1.65;77.69;100968.65;109856;1268;21989;-80
2023/01/26 06:24:39;;;;;;;87.40;63.60;;;;;;;1.65;77.78;100968.48;109692;1268;21990;-78
2023/01/26 06:27:28;;;;;;;93.20;65.50;;;;;;;1.65;77.83;100972.59;109296;1272;23131;-78
2023/01/26 06:30:21;;;;;;;88.00;63.30;;;;;;;1.65;77.74;100978.27;109107;1271;23066;-78
2023/01/26 06:33:07;;;;;;;81.30;63.00;;;;;;;1.66;77.74;100978.96;109349;1271;23055;-79
2023/01/26 06:36:03;;;;;;;87.20;63.90;;;;;;;1.65;77.67;100974.14;110341;1266;22513;-79
2023/01/26 06:38:53;;;;;;;96.50;69.40;;;;;;;1.62;77.67;100977.38;109395;1266;22187;-78
2023/01/26 06:41:33;;;;;;;95.60;73.20;;;;;;;1.60;77.57;100977.88;109311;1272;22067;-77
2023/01/26 06:44:17;;;;;;;94.70;68.70;;;;;;;1.58;77.68;100977.51;108769;1279;21991;-77
2023/01/26 06:47:08;;;;;;;92.50;68.40;;;;;;;1.54;77.58;100977.13;106733;1275;2988302;-78
2023/01/26 06:49:49;;;;;;;88.00;65.10;;;;;;;1.51;77.62;100979.67;109742;1268;21988;-78
2023/01/26 06:52:48;;;;;;;;;;;;;;;;;;;;;
2023/01/26 06:55:52;;;;;;;82.70;61.30;;;;;;;1.49;77.65;100975.89;109303;1273;21989;-76
2023/01/26 06:58:39;;;;;;;85.90;63.00;;;;;;;1.45;77.52;100975.84;110011;1253;22678;-76
2023/01/26 07:01:20;;;;;;;;;;;;;;;1.44;77.62;100969.84;109773;1266;22167;-79
2023/01/26 07:04:08;;;;;;;95.10;65.10;;;;;;;1.40;77.83;100971.17;110673;1261;23645;-79
2023/01/26 07:06:57;;;;;;;92.30;65.00;;;;;;;1.40;77.82;100969.97;110548;1256;23664;-79
2023/01/26 07:09:30;;;;;;;82.10;64.00;;;;;;;1.43;77.79;100970.88;110296;1261;23709;-79
2023/01/26 07:12:18;;;;;;;87.50;67.30;;;;;;;1.47;77.68;100969.87;111218;1255;21974;-79
2023/01/26 07:14:56;;;;;;;101.50;74.40;;;;;;;1.46;77.60;100964.54;110802;1260;22025;-78
2023/01/26 07:17:51;;;;;;;99.90;73.20;;;;;;;1.47;77.49;100961.13;110751;1260;21974;-79
2023/01/26 07:20:46;;;;;;;93.50;64.80;;;;;;;1.48;77.58;100956.84;110766;1260;21975;-77
2023/01/26 07:23:32;;;;;;;98.50;68.60;;;;;;;1.51;77.58;100951.39;110750;1260;21967;-78
2023/01/26 07:26:32;;;;;;;89.60;67.70;;;;;;;1.57;77.60;100949.36;110530;1258;21984;-78
2023/01/26 07:29:29;;;;;;;87.00;67.90;;;;;;;1.63;77.56;100950.61;110770;1260;22207;-79
2023/01/26 07:32:05;;;;;;;81.90;65.10;;;;;;;1.67;77.47;100947.73;110829;1257;21979;-78
2023/01/26 07:34:48;;;;;;;86.00;63.30;;;;;;;1.75;77.41;100947.11;110516;1260;23141;-78
2023/01/26 07:37:18;;;;;;;78.30;60.70;;;;;;;1.84;77.44;100943.58;110159;1267;22015;-80
2023/01/26 07:39:54;;;;;;;81.60;63.00;;;;;;;1.91;77.13;100941.91;109852;1267;23713;-78
2023/01/26 07:42:36;;;;;;;85.20;65.00;;;;;;;1.96;77.03;100938.86;109925;1267;21980;-78
2023/01/26 07:45:55;;;;;;;101.60;72.00;;;;;;;2.00;76.87;100940.26;109912;1267;22370;-79
2023/01/26 07:48:32;;;;;;;94.70;69.20;;;;;;;2.06;76.79;100941.15;110078;1267;22397;-77
2023/01/26 07:51:07;;;;;;;96.90;74.50;;;;;;;2.13;76.65;100942.74;109414;1271;22018;-77
2023/01/26 07:56:55;;;;;;;93.70;69.80;;;;;;;2.24;76.31;100943.85;109941;1266;23030;-80
2023/01/26 07:59:34;;;;;;;99.00;71.70;;;;;;;2.26;75.80;100948.50;109673;1267;21994;-78
2023/01/26 08:02:20;;;;;;;95.10;70.70;;;;;;;2.28;75.74;100949.88;109918;1267;21976;-78
2023/01/26 08:05:01;;;;;;;96.40;68.20;;;;;;;2.29;75.57;100949.38;110093;1267;22001;-77
2023/01/26 08:07:53;;;;;;;88.00;64.30;;;;;;;2.29;75.38;100946.63;109454;1272;22557;-77
2023/01/26 08:10:44;;;;;;;84.50;60.40;;;;;;;2.25;75.04;100951.91;109453;1265;21953;-77
2023/01/26 08:13:40;;;;;;;75.60;58.80;;;;;;;2.25;75.07;100952.79;109434;1272;21993;-77
2023/01/26 08:16:20;;;;;;;79.20;60.90;;;;;;;2.31;75.04;100951.95;109431;1272;23689;-76
2023/01/26 08:18:53;;;;;;;82.10;61.40;;;;;;;2.36;74.83;100962.11;109453;1267;21989;-77
2023/01/26 08:21:36;;;;;;;74.80;57.40;;;;;;;2.40;74.45;100967.64;110049;1267;23740;-77
2023/01/26 08:24:33;;;;;;;73.70;55.30;;;;;;;2.39;74.24;100968.14;109777;1267;22048;-76
2023/01/26 08:27:11;;;;;;;75.10;56.80;;;;;;;2.38;74.25;100963.16;109943;1267;21990;-77
2023/01/26 08:29:56;;;;;;;78.10;59.50;;;;;;;2.42;74.21;100961.98;109825;1268;23734;-78
2023/01/26 08:32:29;;;;;;;74.70;55.90;;;;;;;2.50;74.21;100962.89;109820;1268;21995;-76
2023/01/26 08:35:03;;;;;;;73.00;57.40;;;;;;;2.56;73.97;100958.45;110347;1261;22070;-77
2023/01/26 08:37:44;;;;;;;76.80;57.90;;;;;;;2.62;73.81;100952.98;110552;1261;24982;-77
2023/01/26 08:40:18;;;;;;;90.90;70.60;;;;;;;2.68;73.70;100951.97;110617;1261;21989;-81
2023/01/26 08:43:03;;;;;;;74.40;55.60;;;;;;;2.74;73.70;100954.22;110752;1254;21988;-75
2023/01/26 08:45:41;;;;;;;77.10;60.70;;;;;;;2.80;73.52;100949.09;110621;1261;23025;-73
2023/01/26 08:48:22;;;;;;;87.70;67.50;;;;;;;2.84;73.26;100951.85;110259;1267;22444;-72
2023/01/26 08:51:00;;;;;;;69.80;57.90;;;;;;;2.83;72.66;100952.19;110152;1261;22358;-72
2023/01/26 08:53:36;;;;;;;77.90;60.40;;;;;;;2.80;72.46;100955.45;110529;1260;21984;-73
2023/01/26 08:56:10;;;;;;;87.90;67.40;;;;;;;2.86;72.60;100963.89;110536;1261;23586;-73
2023/01/26 08:58:55;;;;;;;71.50;56.50;;;;;;;2.90;72.17;100962.54;110663;1261;21975;-72
2023/01/26 09:01:28;;;;;;;76.50;57.30;;;;;;;2.83;71.60;100961.82;110408;1261;23605;-73
2023/01/26 09:04:01;;;;;;;72.60;57.00;;;;;;;2.74;71.06;100966.94;110548;1257;23620;-75
2023/01/26 09:06:36;;;;;;;75.10;58.60;;;;;;;2.64;70.99;100972.41;110716;1256;22448;-73
2023/01/26 09:09:11;;;;;;;79.10;62.80;;;;;;;2.65;71.22;100974.64;110947;1256;23612;-75
2023/01/26 09:11:48;;;;;;;84.80;67.60;;;;;;;2.66;71.22;100976.88;110789;1256;23684;-72
2023/01/26 09:14:27;;;;;;;75.30;59.80;;;;;;;2.75;71.41;100975.72;111128;1256;21940;-74
2023/01/26 09:16:59;;;;;;;66.10;50.50;;;;;;;2.81;70.87;100977.12;111083;1255;22186;-75
2023/01/26 09:19:39;;;;;;;67.80;53.20;;;;;;;2.76;70.36;100978.13;111346;1256;23615;-77
2023/01/26 09:22:39;;;;;;;61.30;51.50;;;;;;;2.68;70.28;100975.86;111240;1255;21953;-77
2023/01/26 09:25:28;;;;;;;63.90;49.70;;;;;;;2.68;70.34;100973.80;111043;1256;21925;-75
2023/01/26 09:28:05;;;;;;;64.20;50.50;;;;;;;2.67;69.78;100968.12;110622;1261;23072;-76
2023/01/26 09:30:36;;;;;;;58.40;47.50;;;;;;;2.63;69.55;100968.27;110539;1261;22073;-77
2023/01/26 09:33:13;;;;;;;62.70;52.00;;;;;;;2.61;69.22;100964.98;110388;1261;24363;-75
2023/01/26 09:35:52;;;;;;;61.30;50.00;;;;;;;2.61;69.29;100964.14;110648;1261;23757;-74
2023/01/26 09:38:29;;;;;;;59.70;47.90;;;;;;;2.65;69.16;100965.52;110554;1262;21976;-74
2023/01/26 09:41:40;;;;;;;48.00;40.30;;;;;;;2.67;68.80;100968.12;110613;1261;21976;-74
2023/01/26 09:44:24;;;;;;;56.80;43.70;;;;;;;2.60;68.61;100965.33;110727;1261;22984;-73
2023/01/26 09:47:11;;;;;;;51.00;42.10;;;;;;;2.57;68.52;100955.35;110816;1256;21963;-75
2023/01/26 09:50:12;;;;;;;56.10;45.00;;;;;;;2.58;68.53;100943.16;111284;1256;21961;-75
2023/01/26 09:53:05;;;;;;;52.80;43.70;;;;;;;2.60;68.31;100945.92;110836;1256;23821;-76
2023/01/26 09:55:40;;;;;;;61.00;44.30;;;;;;;2.62;68.24;100945.23;111128;1255;21960;-74
2023/01/26 09:58:35;;;;;;;59.10;46.40;;;;;;;2.73;68.50;100941.16;111014;1256;24289;-75
2023/01/26 10:01:16;;;;;;;53.50;45.40;;;;;;;2.84;68.16;100937.41;110890;1256;22073;-75
2023/01/26 10:03:58;;;;;;;56.20;44.80;;;;;;;2.89;67.64;100937.61;111219;1256;22052;-75
2023/01/26 10:06:35;;;;;;;51.90;40.20;;;;;;;2.89;67.29;100935.38;111122;1256;22730;-74
2023/01/26 10:09:48;;;;;;;48.30;39.60;;;;;;;2.88;67.05;100936.05;111058;1255;23708;-73
2023/01/26 10:12:33;;;;;;;50.10;40.10;;;;;;;2.86;66.81;100928.83;111009;1256;22920;-74
2023/01/26 10:15:26;;;;;;;47.50;37.30;;;;;;;2.84;66.63;100926.59;110812;1256;22012;-74
2023/01/26 10:18:01;;;;;;;50.10;41.70;;;;;;;2.81;66.43;100926.40;111157;1253;21972;-74
2023/01/26 10:20:48;;;;;;;63.70;51.00;;;;;;;2.82;66.31;100930.02;111151;1254;22963;-75
2023/01/26 10:23:33;;;;;;;54.10;44.60;;;;;;;2.84;66.28;100928.14;110904;1256;22162;-75
2023/01/26 10:26:21;;;;;;;135.80;97.70;;;;;;;2.90;66.37;100922.30;110900;1255;22072;-74
2023/01/26 10:28:52;;;;;;;89.80;70.30;;;;;;;2.97;66.21;100920.08;111003;1250;21970;-76
2023/01/26 10:31:34;;;;;;;79.00;60.70;;;;;;;3.02;65.91;100916.50;110841;1256;23692;-74
2023/01/26 10:34:07;;;;;;;51.50;43.80;;;;;;;3.02;65.26;100910.65;110938;1255;21966;-74
2023/01/26 10:36:36;;;;;;;53.00;46.00;;;;;;;2.94;64.90;100914.41;111171;1256;21960;-75
2023/01/26 10:39:13;;;;;;;57.70;51.10;;;;;;;2.94;65.31;100913.73;110990;1256;21964;-75
2023/01/26 10:42:02;;;;;;;56.90;45.30;;;;;;;2.95;65.22;100907.89;110999;1256;22720;-74
2023/01/26 10:44:38;;;;;;;54.00;38.30;;;;;;;2.95;65.02;100908.40;110978;1256;21968;-74
2023/01/26 10:47:22;;;;;;;49.90;40.30;;;;;;;2.93;64.95;100907.35;111028;1245;23053;-74
2023/01/26 10:50:22;;;;;;;53.90;42.30;;;;;;;2.97;65.13;100902.04;110621;1260;23742;-75
2023/01/26 10:53:28;;;;;;;49.50;43.10;;;;;;;3.05;65.01;100899.13;110748;1260;23050;-78
2023/01/26 10:56:19;;;;;;;50.10;40.80;;;;;;;3.01;64.57;100896.02;110002;1266;21983;-77
2023/01/26 10:59:00;;;;;;;48.90;41.50;;;;;;;3.04;64.61;100888.46;110236;1266;21976;-76
2023/01/26 11:01:51;;;;;;;50.20;43.60;;;;;;;3.04;64.30;100881.59;110068;1266;21977;-75
2023/01/26 11:04:22;;;;;;;50.10;39.90;;;;;;;3.02;64.10;100873.66;109950;1266;22249;-75
2023/01/26 11:06:55;;;;;;;44.30;38.40;;;;;;;3.03;64.09;100872.64;109933;1266;21949;-76
2023/01/26 11:09:30;;;;;;;56.60;44.80;;;;;;;2.99;63.93;100872.13;110388;1260;21970;-73
2023/01/26 11:12:04;;;;;;;;;;;;;;;3.01;64.10;100870.05;110804;1261;21989;-74
2023/01/26 11:14:36;;;;;;;55.50;44.20;;;;;;;2.97;64.14;100865.92;110704;1261;21992;-75
2023/01/26 11:17:21;;;;;;;58.30;47.00;;;;;;;3.02;64.09;100861.46;110667;1261;21971;-76
2023/01/26 11:20:40;;;;;;;53.40;44.90;;;;;;;3.06;63.95;100860.45;110675;1261;22005;-76
2023/01/26 11:23:56;;;;;;;52.10;42.50;;;;;;;3.07;63.47;100858.73;110842;1261;21979;-76
2023/01/26 11:27:21;;;;;;;54.50;46.90;;;;;;;3.05;63.51;100854.77;109905;1268;23634;-76
2023/01/26 11:30:02;;;;;;;56.50;45.70;;;;;;;3.16;63.83;100850.98;109559;1272;23848;-76
2023/01/26 11:32:56;;;;;;;51.30;44.90;;;;;;;3.27;63.54;100846.86;109528;1268;21998;-76
2023/01/26 11:36:11;;;;;;;55.30;45.80;;;;;;;3.33;63.25;100844.97;110002;1265;22005;-74
2023/01/26 11:39:12;;;;;;;;;;;;;;;3.40;63.36;100836.89;109881;1268;23704;-77
2023/01/26 11:42:04;;;;;;;58.50;44.00;;;;;;;3.43;63.52;100836.55;109744;1259;23031;-74
2023/01/26 11:45:20;;;;;;;48.80;41.50;;;;;;;3.49;63.21;100836.54;109539;1271;23619;-75
2023/01/26 11:48:23;;;;;;;56.50;44.20;;;;;;;3.49;62.75;100836.02;109874;1272;23735;-75
2023/01/26 11:50:57;;;;;;;53.20;43.20;;;;;;;3.47;62.48;100834.98;109864;1273;21981;-75
2023/01/26 11:54:49;;;;;;;62.40;49.60;;;;;;;3.43;62.24;100834.98;109268;1269;21969;-76
2023/01/26 11:57:36;;;;;;;50.50;44.40;;;;;;;3.39;62.36;100836.03;108959;1278;22000;-76
2023/01/26 12:00:32;;;;;;;52.20;45.10;;;;;;;3.46;62.48;100833.44;109009;1277;23773;-75
2023/01/26 12:03:11;;;;;;;52.20;40.90;;;;;;;3.48;62.03;100833.60;108675;1281;23735;-76
2023/01/26 12:05:51;;;;;;;51.00;41.60;;;;;;;3.48;61.87;100826.39;108444;1283;22006;-76
2023/01/26 12:08:42;;;;;;;52.80;47.10;;;;;;;3.56;62.09;100819.67;108486;1281;22028;-75
2023/01/26 12:14:39;;;;;;;50.10;42.70;;;;;;;3.61;61.60;100821.72;108497;1284;22001;-75
2023/01/26 12:17:30;;;;;;;51.50;43.80;;;;;;;3.50;61.28;100816.23;108522;1283;22460;-75
2023/01/26 12:20:34;;;;;;;58.90;46.80;;;;;;;3.35;61.08;100816.59;108789;1279;21984;-76
2023/01/26 12:23:54;;;;;;;56.40;44.70;;;;;;;3.22;61.23;100815.73;109502;1267;22737;-75
2023/01/26 12:26:38;;;;;;;57.40;48.20;;;;;;;3.07;61.19;100818.31;109054;1278;22004;-76
2023/01/26 12:29:32;;;;;;;62.50;51.10;;;;;;;3.08;61.65;100817.29;108655;1280;24349;-75
2023/01/26 12:32:19;;;;;;;60.70;51.30;;;;;;;3.16;61.92;100816.42;109669;1270;22551;-77
2023/01/26 12:34:51;;;;;;;58.80;51.10;;;;;;;3.18;61.71;100819.00;109770;1269;22122;-76
2023/01/26 12:37:36;;;;;;;60.80;49.20;;;;;;;3.20;61.76;100819.52;109677;1269;22054;-77
2023/01/26 12:40:33;;;;;;;70.80;53.50;;;;;;;3.24;61.87;100813.33;109329;1272;23687;-75
2023/01/26 12:43:30;;;;;;;82.90;55.20;;;;;;;3.27;61.82;100808.85;109226;1270;21999;-76
2023/01/26 12:46:03;;;;;;;57.40;48.90;;;;;;;3.22;61.44;100804.89;110153;1268;21980;-75
2023/01/26 12:48:45;;;;;;;63.20;51.80;;;;;;;3.19;61.51;100804.04;109596;1267;23720;-75
2023/01/26 12:51:43;;;;;;;70.30;55.70;;;;;;;3.20;61.73;100801.63;110039;1267;23628;-76
2023/01/26 12:54:39;;;;;;;61.30;48.50;;;;;;;3.20;61.70;100807.30;109882;1268;22468;-74
2023/01/26 12:57:18;;;;;;;57.40;48.10;;;;;;;3.12;61.33;100806.27;110099;1268;24389;-77
2023/01/26 12:59:51;;;;;;;55.40;44.80;;;;;;;3.06;61.35;100804.73;110265;1268;22068;-76
2023/01/26 13:02:34;;;;;;;64.70;51.60;;;;;;;3.04;61.52;100803.36;109927;1264;21972;-75
2023/01/26 13:05:32;;;;;;;62.20;48.60;;;;;;;3.06;61.63;100800.77;110502;1256;23031;-75
2023/01/26 13:08:31;;;;;;;64.90;51.70;;;;;;;3.10;61.70;100798.89;111035;1256;21967;-76
2023/01/26 13:11:07;;;;;;;63.30;52.50;;;;;;;3.14;61.80;100794.76;111068;1255;21964;-76
2023/01/26 13:13:56;;;;;;;66.70;57.30;;;;;;;3.19;61.75;100795.44;111046;1250;21971;-75
2023/01/26 13:16:45;;;;;;;69.40;60.00;;;;;;;3.22;61.75;100796.80;110804;1256;23580;-75
2023/01/26 13:19:42;;;;;;;56.00;49.00;;;;;;;3.20;61.53;100801.46;110388;1263;21980;-75
2023/01/26 13:22:18;;;;;;;60.90;51.70;;;;;;;3.09;61.44;100806.10;110716;1263;22003;-74
2023/01/26 13:25:31;;;;;;;53.00;45.30;;;;;;;2.99;61.26;100802.84;110637;1260;23024;-75
2023/01/26 13:28:02;;;;;;;56.10;47.20;;;;;;;2.82;61.43;100807.62;109720;1268;21999;-74
2023/01/26 13:30:42;;;;;;;63.40;55.60;;;;;;;2.74;61.60;100800.58;109750;1270;21981;-74
2023/01/26 13:33:24;;;;;;;51.20;42.10;;;;;;;2.67;61.58;100795.41;109802;1270;22058;-76
2023/01/26 13:35:54;;;;;;;54.50;44.20;;;;;;;2.63;61.79;100792.99;109702;1269;22087;-76